Melcher Dallas, Iowa
Current Conditions -  °F | °C
As of 11:55 AM on Saturday 20 Dec 2014 (Local Time) from KOXV Reporting Station
Haze Haze  
Wind Chill: -2°   Ceiling: 500
Heat Index:   Visibility: 3mi
Dew Point:   Wind: 7mph
Humidity: 93%   Direction: 150°SSE
Pressure: 30.15"   Gusts: NA
Location:  41.2269°N, 93.1611°W
Report Text: KOXV 201755Z AUTO 15006KT 3SM BR OVC005 01/00 A3015 RMK AO2
Loading
Personal Weather Stations






























Interactive Weather Map New forecast layout! Learn more

10-Day Weather Forecast

Advertisements
Track Severe Weather on mobile